sensor_id;sensor_type;location;lat;lon;timestamp;pressure;altitude;pressure_sealevel;temperature;humidity
72262;BME280;60173;52.112;8.648;2022-07-23T00:01:05;100861.84;;;13.12;91.74
72262;BME280;60173;52.112;8.648;2022-07-23T00:03:32;100865.59;;;13.17;91.61
72262;BME280;60173;52.112;8.648;2022-07-23T00:05:58;100864.97;;;13.33;90.67
72262;BME280;60173;52.112;8.648;2022-07-23T00:08:24;100864.59;;;13.26;90.49
72262;BME280;60173;52.112;8.648;2022-07-23T00:10:51;100852.44;;;13.32;90.18
72262;BME280;60173;52.112;8.648;2022-07-23T00:13:17;100848.81;;;13.37;89.85
72262;BME280;60173;52.112;8.648;2022-07-23T00:15:44;100843.84;;;13.39;89.66
72262;BME280;60173;52.112;8.648;2022-07-23T00:18:10;100847.56;;;13.43;89.61
72262;BME280;60173;52.112;8.648;2022-07-23T00:20:36;100849.38;;;13.48;89.60
72262;BME280;60173;52.112;8.648;2022-07-23T00:23:03;100854.75;;;13.39;89.39
72262;BME280;60173;52.112;8.648;2022-07-23T00:25:29;100850.13;;;13.40;89.82
72262;BME280;60173;52.112;8.648;2022-07-23T00:27:58;100848.31;;;13.35;90.08
72262;BME280;60173;52.112;8.648;2022-07-23T00:30:25;100858.84;;;13.28;90.33
72262;BME280;60173;52.112;8.648;2022-07-23T00:33:03;100862.72;;;13.22;91.09
72262;BME280;60173;52.112;8.648;2022-07-23T00:35:33;100849.81;;;13.41;91.00
72262;BME280;60173;52.112;8.648;2022-07-23T00:38:01;100847.56;;;13.43;90.74
72262;BME280;60173;52.112;8.648;2022-07-23T00:40:29;100851.22;;;13.39;90.70
72262;BME280;60173;52.112;8.648;2022-07-23T00:42:55;100848.81;;;13.37;90.73
72262;BME280;60173;52.112;8.648;2022-07-23T00:45:22;100854.25;;;13.37;90.52
72262;BME280;60173;52.112;8.648;2022-07-23T00:47:49;100859.72;;;13.37;90.46
72262;BME280;60173;52.112;8.648;2022-07-23T00:50:15;100871.25;;;13.34;90.43
72262;BME280;60173;52.112;8.648;2022-07-23T00:52:41;100877.19;;;13.36;90.58
72262;BME280;60173;52.112;8.648;2022-07-23T00:55:09;100885.38;;;13.36;90.66
72262;BME280;60173;52.112;8.648;2022-07-23T00:57:37;100874.97;;;13.38;90.58
72262;BME280;60173;52.112;8.648;2022-07-23T01:00:05;100882.53;;;13.41;90.39
72262;BME280;60173;52.112;8.648;2022-07-23T01:02:32;100881.53;;;13.37;90.53
72262;BME280;60173;52.112;8.648;2022-07-23T01:04:59;100882.63;;;13.50;90.37
72262;BME280;60173;52.112;8.648;2022-07-23T01:07:25;100883.81;;;13.57;90.02
72262;BME280;60173;52.112;8.648;2022-07-23T01:09:52;100888.72;;;13.69;89.76
72262;BME280;60173;52.112;8.648;2022-07-23T01:12:20;100883.47;;;13.73;89.28
72262;BME280;60173;52.112;8.648;2022-07-23T01:14:57;100884.47;;;13.77;88.85
72262;BME280;60173;52.112;8.648;2022-07-23T01:17:24;100887.81;;;13.96;88.64
72262;BME280;60173;52.112;8.648;2022-07-23T01:19:50;100872.63;;;14.04;88.50
72262;BME280;60173;52.112;8.648;2022-07-23T01:22:18;100878.88;;;14.05;88.45
72262;BME280;60173;52.112;8.648;2022-07-23T01:24:45;100874.09;;;14.10;88.08
72262;BME280;60173;52.112;8.648;2022-07-23T01:27:12;100877.50;;;14.16;88.00
72262;BME280;60173;52.112;8.648;2022-07-23T01:29:39;100878.50;;;14.20;87.91
72262;BME280;60173;52.112;8.648;2022-07-23T01:32:06;100885.44;;;14.26;87.68
72262;BME280;60173;52.112;8.648;2022-07-23T01:34:32;100879.00;;;14.22;87.83
72262;BME280;60173;52.112;8.648;2022-07-23T01:36:59;100884.28;;;14.18;88.18
72262;BME280;60173;52.112;8.648;2022-07-23T01:39:25;100875.28;;;14.18;87.87
72262;BME280;60173;52.112;8.648;2022-07-23T01:41:52;100875.50;;;14.30;87.42
72262;BME280;60173;52.112;8.648;2022-07-23T01:44:18;100871.03;;;14.34;87.49
72262;BME280;60173;52.112;8.648;2022-07-23T01:46:45;100862.34;;;14.32;87.32
72262;BME280;60173;52.112;8.648;2022-07-23T01:49:11;100851.22;;;13.97;88.41
72262;BME280;60173;52.112;8.648;2022-07-23T01:51:38;100849.53;;;13.88;88.45
72262;BME280;60173;52.112;8.648;2022-07-23T01:54:04;100846.09;;;14.05;88.69
72262;BME280;60173;52.112;8.648;2022-07-23T01:56:30;100858.75;;;14.23;88.34
72262;BME280;60173;52.112;8.648;2022-07-23T01:58:57;100852.84;;;14.30;87.93
72262;BME280;60173;52.112;8.648;2022-07-23T02:01:24;100839.38;;;14.33;88.19
72262;BME280;60173;52.112;8.648;2022-07-23T02:03:50;100826.84;;;14.32;88.67
72262;BME280;60173;52.112;8.648;2022-07-23T02:06:16;100821.84;;;14.34;88.55
72262;BME280;60173;52.112;8.648;2022-07-23T02:08:43;100821.06;;;14.42;88.61
72262;BME280;60173;52.112;8.648;2022-07-23T02:11:09;100820.94;;;14.47;88.70
72262;BME280;60173;52.112;8.648;2022-07-23T02:13:36;100810.47;;;14.10;90.39
72262;BME280;60173;52.112;8.648;2022-07-23T02:16:02;100808.16;;;13.94;91.05
72262;BME280;60173;52.112;8.648;2022-07-23T02:18:28;100794.88;;;14.41;88.82
72262;BME280;60173;52.112;8.648;2022-07-23T02:20:55;100796.97;;;14.44;87.95
72262;BME280;60173;52.112;8.648;2022-07-23T02:23:21;100799.97;;;14.34;88.24
72262;BME280;60173;52.112;8.648;2022-07-23T02:25:48;100797.06;;;14.31;87.94
72262;BME280;60173;52.112;8.648;2022-07-23T02:28:14;100794.19;;;14.27;88.05
72262;BME280;60173;52.112;8.648;2022-07-23T02:30:40;100784.84;;;14.28;88.04
72262;BME280;60173;52.112;8.648;2022-07-23T02:33:07;100785.81;;;13.92;89.13
72262;BME280;60173;52.112;8.648;2022-07-23T02:35:33;100784.50;;;13.90;89.97
72262;BME280;60173;52.112;8.648;2022-07-23T02:37:59;100789.16;;;13.89;90.33
72262;BME280;60173;52.112;8.648;2022-07-23T02:40:26;100810.25;;;13.75;90.51
72262;BME280;60173;52.112;8.648;2022-07-23T02:42:52;100808.16;;;13.72;91.22
72262;BME280;60173;52.112;8.648;2022-07-23T02:45:18;100814.09;;;13.74;91.49
72262;BME280;60173;52.112;8.648;2022-07-23T02:47:45;100821.34;;;13.78;91.25
72262;BME280;60173;52.112;8.648;2022-07-23T02:50:11;100829.63;;;13.87;91.16
72262;BME280;60173;52.112;8.648;2022-07-23T02:52:38;100837.81;;;13.87;91.13
72262;BME280;60173;52.112;8.648;2022-07-23T02:55:05;100830.22;;;13.84;91.16
72262;BME280;60173;52.112;8.648;2022-07-23T02:57:31;100818.19;;;13.85;90.98
72262;BME280;60173;52.112;8.648;2022-07-23T02:59:58;100821.06;;;13.80;90.99
72262;BME280;60173;52.112;8.648;2022-07-23T03:02:24;100821.00;;;13.71;91.19
72262;BME280;60173;52.112;8.648;2022-07-23T03:04:51;100831.25;;;13.66;91.52
72262;BME280;60173;52.112;8.648;2022-07-23T03:07:17;100829.44;;;13.61;91.85
72262;BME280;60173;52.112;8.648;2022-07-23T03:09:44;100834.44;;;13.68;92.00
72262;BME280;60173;52.112;8.648;2022-07-23T03:12:10;100821.19;;;13.75;91.77
72262;BME280;60173;52.112;8.648;2022-07-23T03:14:40;100829.88;;;13.77;91.84
72262;BME280;60173;52.112;8.648;2022-07-23T03:17:08;100810.63;;;13.82;91.61
72262;BME280;60173;52.112;8.648;2022-07-23T03:19:34;100819.56;;;13.74;91.70
72262;BME280;60173;52.112;8.648;2022-07-23T03:22:00;100819.63;;;13.60;91.89
72262;BME280;60173;52.112;8.648;2022-07-23T03:24:27;100822.47;;;13.55;92.26
72262;BME280;60173;52.112;8.648;2022-07-23T03:26:53;100819.19;;;13.67;92.23
72262;BME280;60173;52.112;8.648;2022-07-23T03:29:19;100809.88;;;13.68;92.07
72262;BME280;60173;52.112;8.648;2022-07-23T03:31:46;100812.88;;;13.80;92.04
72262;BME280;60173;52.112;8.648;2022-07-23T03:34:12;100812.47;;;13.95;90.59
72262;BME280;60173;52.112;8.648;2022-07-23T03:36:39;100813.97;;;14.01;89.90
72262;BME280;60173;52.112;8.648;2022-07-23T03:39:05;100823.53;;;13.90;90.17
72262;BME280;60173;52.112;8.648;2022-07-23T03:41:31;100827.81;;;13.83;90.76
72262;BME280;60173;52.112;8.648;2022-07-23T03:43:58;100823.72;;;13.71;90.95
72262;BME280;60173;52.112;8.648;2022-07-23T03:46:24;100823.91;;;13.75;91.21
72262;BME280;60173;52.112;8.648;2022-07-23T03:48:50;100824.28;;;13.82;91.16
72262;BME280;60173;52.112;8.648;2022-07-23T03:51:24;100822.41;;;13.91;91.15
72262;BME280;60173;52.112;8.648;2022-07-23T03:53:50;100829.16;;;13.94;90.41
72262;BME280;60173;52.112;8.648;2022-07-23T03:56:16;100827.38;;;13.89;90.55
72262;BME280;60173;52.112;8.648;2022-07-23T03:58:43;100830.06;;;13.81;90.84
72262;BME280;60173;52.112;8.648;2022-07-23T04:01:10;100829.38;;;13.75;91.14
72262;BME280;60173;52.112;8.648;2022-07-23T04:03:37;100829.56;;;13.78;90.93
72262;BME280;60173;52.112;8.648;2022-07-23T04:06:03;100826.03;;;13.78;91.03
72262;BME280;60173;52.112;8.648;2022-07-23T04:08:30;100812.38;;;13.78;91.15
72262;BME280;60173;52.112;8.648;2022-07-23T04:10:56;100818.34;;;13.80;91.20
72262;BME280;60173;52.112;8.648;2022-07-23T04:13:22;100817.50;;;13.79;91.17
72262;BME280;60173;52.112;8.648;2022-07-23T04:15:49;100819.94;;;13.81;91.33
72262;BME280;60173;52.112;8.648;2022-07-23T04:18:16;100827.63;;;13.79;91.10
72262;BME280;60173;52.112;8.648;2022-07-23T04:20:44;100819.38;;;13.70;91.42
72262;BME280;60173;52.112;8.648;2022-07-23T04:23:10;100819.38;;;13.70;91.63
72262;BME280;60173;52.112;8.648;2022-07-23T04:25:36;100816.97;;;13.69;91.77
72262;BME280;60173;52.112;8.648;2022-07-23T04:28:03;100818.13;;;13.76;91.88
72262;BME280;60173;52.112;8.648;2022-07-23T04:30:30;100814.84;;;13.88;91.51
72262;BME280;60173;52.112;8.648;2022-07-23T04:32:56;100815.66;;;13.89;91.47
72262;BME280;60173;52.112;8.648;2022-07-23T04:35:22;100821.97;;;13.98;91.28
72262;BME280;60173;52.112;8.648;2022-07-23T04:37:49;100817.81;;;14.00;91.13
72262;BME280;60173;52.112;8.648;2022-07-23T04:40:15;100820.22;;;14.02;90.76
72262;BME280;60173;52.112;8.648;2022-07-23T04:42:42;100817.66;;;14.06;90.48
72262;BME280;60173;52.112;8.648;2022-07-23T04:45:08;100825.13;;;13.91;90.38
72262;BME280;60173;52.112;8.648;2022-07-23T04:47:39;100822.56;;;13.86;90.82
72262;BME280;60173;52.112;8.648;2022-07-23T04:50:05;100829.09;;;13.85;91.12
72262;BME280;60173;52.112;8.648;2022-07-23T04:52:32;100828.28;;;14.07;91.39
72262;BME280;60173;52.112;8.648;2022-07-23T04:54:58;100828.06;;;14.26;90.85
72262;BME280;60173;52.112;8.648;2022-07-23T04:57:25;100839.69;;;14.40;89.75
72262;BME280;60173;52.112;8.648;2022-07-23T04:59:51;100838.41;;;14.69;88.81
72262;BME280;60173;52.112;8.648;2022-07-23T05:02:17;100835.53;;;14.74;87.90
72262;BME280;60173;52.112;8.648;2022-07-23T05:04:44;100834.56;;;14.70;87.93
72262;BME280;60173;52.112;8.648;2022-07-23T05:07:10;100840.72;;;14.84;88.27
72262;BME280;60173;52.112;8.648;2022-07-23T05:09:37;100840.25;;;14.91;87.82
72262;BME280;60173;52.112;8.648;2022-07-23T05:12:04;100842.25;;;15.08;87.42
72262;BME280;60173;52.112;8.648;2022-07-23T05:14:30;100843.06;;;15.26;86.51
72262;BME280;60173;52.112;8.648;2022-07-23T05:16:56;100833.28;;;15.42;85.45
72262;BME280;60173;52.112;8.648;2022-07-23T05:19:23;100843.56;;;15.54;85.12
72262;BME280;60173;52.112;8.648;2022-07-23T05:21:51;100841.47;;;15.59;84.88
72262;BME280;60173;52.112;8.648;2022-07-23T05:24:17;100843.72;;;15.49;84.88
72262;BME280;60173;52.112;8.648;2022-07-23T05:26:43;100854.84;;;15.61;84.84
72262;BME280;60173;52.112;8.648;2022-07-23T05:29:10;100853.69;;;15.62;84.76
72262;BME280;60173;52.112;8.648;2022-07-23T05:31:36;100850.34;;;15.65;84.24
72262;BME280;60173;52.112;8.648;2022-07-23T05:34:03;100845.03;;;15.60;84.53
72262;BME280;60173;52.112;8.648;2022-07-23T05:36:31;100848.38;;;15.31;85.68
72262;BME280;60173;52.112;8.648;2022-07-23T05:38:58;100840.50;;;15.29;85.70
72262;BME280;60173;52.112;8.648;2022-07-23T05:41:25;100847.41;;;15.44;85.75
72262;BME280;60173;52.112;8.648;2022-07-23T05:43:51;100852.47;;;15.68;85.36
72262;BME280;60173;52.112;8.648;2022-07-23T05:46:17;100860.31;;;15.87;84.69
72262;BME280;60173;52.112;8.648;2022-07-23T05:48:44;100866.59;;;16.05;83.51
72262;BME280;60173;52.112;8.648;2022-07-23T05:51:10;100862.19;;;16.30;81.19
72262;BME280;60173;52.112;8.648;2022-07-23T05:53:37;100866.34;;;16.45;78.79
72262;BME280;60173;52.112;8.648;2022-07-23T05:56:03;100861.19;;;16.43;79.95
72262;BME280;60173;52.112;8.648;2022-07-23T05:58:30;100864.91;;;16.39;80.07
72262;BME280;60173;52.112;8.648;2022-07-23T06:00:56;100863.84;;;16.69;79.92
72262;BME280;60173;52.112;8.648;2022-07-23T06:03:23;100853.81;;;16.73;79.34
72262;BME280;60173;52.112;8.648;2022-07-23T06:05:49;100862.03;;;16.73;79.31
72262;BME280;60173;52.112;8.648;2022-07-23T06:08:15;100857.03;;;16.76;78.99
72262;BME280;60173;52.112;8.648;2022-07-23T06:10:42;100866.31;;;16.92;77.18
72262;BME280;60173;52.112;8.648;2022-07-23T06:13:08;100863.69;;;17.04;77.52
72262;BME280;60173;52.112;8.648;2022-07-23T06:15:34;100862.25;;;17.28;77.43
72262;BME280;60173;52.112;8.648;2022-07-23T06:18:01;100865.34;;;17.68;76.23
72262;BME280;60173;52.112;8.648;2022-07-23T06:20:27;100865.31;;;17.47;75.63
72262;BME280;60173;52.112;8.648;2022-07-23T06:22:54;100865.19;;;17.65;74.13
72262;BME280;60173;52.112;8.648;2022-07-23T06:25:20;100863.47;;;17.60;74.26
72262;BME280;60173;52.112;8.648;2022-07-23T06:27:47;100867.75;;;17.91;73.24
72262;BME280;60173;52.112;8.648;2022-07-23T06:30:14;100875.97;;;18.12;72.73
72262;BME280;60173;52.112;8.648;2022-07-23T06:32:43;100878.44;;;18.04;71.30
72262;BME280;60173;52.112;8.648;2022-07-23T06:35:09;100874.56;;;18.05;69.79
72262;BME280;60173;52.112;8.648;2022-07-23T06:37:35;100879.88;;;18.23;69.26
72262;BME280;60173;52.112;8.648;2022-07-23T06:40:03;100877.84;;;18.32;70.40
72262;BME280;60173;52.112;8.648;2022-07-23T06:42:31;100883.25;;;18.07;70.85
72262;BME280;60173;52.112;8.648;2022-07-23T06:44:58;100884.94;;;18.33;69.33
72262;BME280;60173;52.112;8.648;2022-07-23T06:47:24;100890.69;;;18.40;69.59
72262;BME280;60173;52.112;8.648;2022-07-23T06:49:50;100893.69;;;18.47;70.16
72262;BME280;60173;52.112;8.648;2022-07-23T06:52:17;100885.91;;;18.16;69.34
72262;BME280;60173;52.112;8.648;2022-07-23T06:54:43;100892.44;;;18.12;69.48
72262;BME280;60173;52.112;8.648;2022-07-23T06:57:09;100889.34;;;18.13;70.27
72262;BME280;60173;52.112;8.648;2022-07-23T06:59:36;100893.66;;;18.35;68.39
72262;BME280;60173;52.112;8.648;2022-07-23T07:02:03;100890.91;;;18.35;68.63
72262;BME280;60173;52.112;8.648;2022-07-23T07:04:29;100891.13;;;18.30;68.27
72262;BME280;60173;52.112;8.648;2022-07-23T07:06:55;100900.34;;;18.46;68.56
72262;BME280;60173;52.112;8.648;2022-07-23T07:09:22;100892.28;;;18.29;67.53
72262;BME280;60173;52.112;8.648;2022-07-23T07:11:48;100894.56;;;18.39;68.32
72262;BME280;60173;52.112;8.648;2022-07-23T07:14:14;100893.69;;;18.60;68.11
72262;BME280;60173;52.112;8.648;2022-07-23T07:16:41;100893.94;;;18.67;68.95
72262;BME280;60173;52.112;8.648;2022-07-23T07:19:07;100892.78;;;18.56;66.34
72262;BME280;60173;52.112;8.648;2022-07-23T07:21:34;100888.66;;;18.62;68.41
72262;BME280;60173;52.112;8.648;2022-07-23T07:24:00;100903.72;;;18.77;68.14
72262;BME280;60173;52.112;8.648;2022-07-23T07:26:26;100906.25;;;17.61;69.03
72262;BME280;60173;52.112;8.648;2022-07-23T07:28:53;100904.19;;;17.58;71.13
72262;BME280;60173;52.112;8.648;2022-07-23T07:31:19;100905.53;;;18.15;68.72
72262;BME280;60173;52.112;8.648;2022-07-23T07:33:46;100905.22;;;18.74;66.01
72262;BME280;60173;52.112;8.648;2022-07-23T07:36:12;100909.47;;;18.38;67.47
72262;BME280;60173;52.112;8.648;2022-07-23T07:38:44;100920.09;;;18.61;67.14
72262;BME280;60173;52.112;8.648;2022-07-23T07:41:11;100917.84;;;18.75;65.74
72262;BME280;60173;52.112;8.648;2022-07-23T07:43:37;100921.06;;;18.89;64.46
72262;BME280;60173;52.112;8.648;2022-07-23T07:46:04;100918.28;;;18.77;65.34
72262;BME280;60173;52.112;8.648;2022-07-23T07:48:30;100928.38;;;18.97;63.87
72262;BME280;60173;52.112;8.648;2022-07-23T07:50:57;100923.34;;;19.12;62.99
72262;BME280;60173;52.112;8.648;2022-07-23T07:53:24;100924.28;;;19.16;63.57
72262;BME280;60173;52.112;8.648;2022-07-23T07:55:51;100927.72;;;19.25;65.24
72262;BME280;60173;52.112;8.648;2022-07-23T07:58:17;100925.06;;;19.16;63.82
72262;BME280;60173;52.112;8.648;2022-07-23T08:00:44;100935.97;;;19.25;63.50
72262;BME280;60173;52.112;8.648;2022-07-23T08:03:10;100934.53;;;19.80;60.21
72262;BME280;60173;52.112;8.648;2022-07-23T08:05:37;100936.94;;;20.38;59.63
72262;BME280;60173;52.112;8.648;2022-07-23T08:08:04;100930.44;;;20.74;58.22
72262;BME280;60173;52.112;8.648;2022-07-23T08:10:30;100939.28;;;20.52;57.65
72262;BME280;60173;52.112;8.648;2022-07-23T08:12:58;100940.34;;;19.91;61.63
72262;BME280;60173;52.112;8.648;2022-07-23T08:15:27;100939.97;;;18.79;65.46
72262;BME280;60173;52.112;8.648;2022-07-23T08:17:54;100938.97;;;18.95;63.99
72262;BME280;60173;52.112;8.648;2022-07-23T08:20:22;100931.38;;;18.92;63.55
72262;BME280;60173;52.112;8.648;2022-07-23T08:22:51;100941.56;;;18.80;65.07
72262;BME280;60173;52.112;8.648;2022-07-23T08:25:25;100938.25;;;19.23;63.49
72262;BME280;60173;52.112;8.648;2022-07-23T08:27:52;100937.34;;;19.31;61.72
72262;BME280;60173;52.112;8.648;2022-07-23T08:30:19;100947.66;;;19.71;60.98
72262;BME280;60173;52.112;8.648;2022-07-23T08:33:00;100941.56;;;20.34;59.58
72262;BME280;60173;52.112;8.648;2022-07-23T08:35:33;100944.59;;;21.20;57.06
72262;BME280;60173;52.112;8.648;2022-07-23T08:38:02;100934.69;;;20.56;59.35
72262;BME280;60173;52.112;8.648;2022-07-23T08:40:31;100947.47;;;19.92;60.01
72262;BME280;60173;52.112;8.648;2022-07-23T08:42:58;100948.72;;;19.95;61.50
72262;BME280;60173;52.112;8.648;2022-07-23T08:45:26;100946.53;;;19.35;61.98
72262;BME280;60173;52.112;8.648;2022-07-23T08:47:55;100947.91;;;19.41;61.93
72262;BME280;60173;52.112;8.648;2022-07-23T08:50:23;100945.63;;;19.96;59.02
72262;BME280;60173;52.112;8.648;2022-07-23T08:52:50;100947.59;;;20.24;57.77
72262;BME280;60173;52.112;8.648;2022-07-23T08:55:19;100944.25;;;19.90;59.35
72262;BME280;60173;52.112;8.648;2022-07-23T08:57:48;100953.91;;;19.96;59.98
72262;BME280;60173;52.112;8.648;2022-07-23T09:00:15;100949.19;;;19.84;60.39
72262;BME280;60173;52.112;8.648;2022-07-23T09:02:44;100943.97;;;19.79;59.03
72262;BME280;60173;52.112;8.648;2022-07-23T09:05:12;100943.88;;;20.04;59.09
72262;BME280;60173;52.112;8.648;2022-07-23T09:08:04;100952.41;;;20.55;60.02
72262;BME280;60173;52.112;8.648;2022-07-23T09:10:46;100950.38;;;20.40;56.97
72262;BME280;60173;52.112;8.648;2022-07-23T09:13:34;100952.28;;;20.23;57.23
72262;BME280;60173;52.112;8.648;2022-07-23T09:16:08;100945.38;;;20.73;56.93
72262;BME280;60173;52.112;8.648;2022-07-23T09:18:36;100945.41;;;21.56;55.39
72262;BME280;60173;52.112;8.648;2022-07-23T09:21:07;100946.25;;;21.76;52.67
72262;BME280;60173;52.112;8.648;2022-07-23T09:23:47;100944.66;;;20.32;56.86
72262;BME280;60173;52.112;8.648;2022-07-23T09:26:37;100958.22;;;19.08;60.01
72262;BME280;60173;52.112;8.648;2022-07-23T09:29:16;100962.34;;;19.02;60.65
72262;BME280;60173;52.112;8.648;2022-07-23T09:34:27;100958.00;;;19.01;60.07
72262;BME280;60173;52.112;8.648;2022-07-23T09:36:56;100954.69;;;19.44;58.17
72262;BME280;60173;52.112;8.648;2022-07-23T09:39:32;100951.28;;;20.44;56.58
72262;BME280;60173;52.112;8.648;2022-07-23T09:42:19;100951.69;;;21.53;53.06
72262;BME280;60173;52.112;8.648;2022-07-23T09:44:51;100950.72;;;22.20;50.20
72262;BME280;60173;52.112;8.648;2022-07-23T09:47:19;100948.56;;;22.52;49.87
72262;BME280;60173;52.112;8.648;2022-07-23T09:50:05;100953.59;;;22.46;51.40
72262;BME280;60173;52.112;8.648;2022-07-23T09:52:44;100961.00;;;22.19;53.04
72262;BME280;60173;52.112;8.648;2022-07-23T09:55:11;100964.78;;;21.25;54.50
72262;BME280;60173;52.112;8.648;2022-07-23T09:57:37;100958.09;;;20.06;54.52
72262;BME280;60173;52.112;8.648;2022-07-23T10:00:08;100958.81;;;20.03;60.59
72262;BME280;60173;52.112;8.648;2022-07-23T10:02:35;100957.69;;;19.92;56.22
72262;BME280;60173;52.112;8.648;2022-07-23T10:05:04;100963.84;;;19.48;57.35
72262;BME280;60173;52.112;8.648;2022-07-23T10:07:34;100965.22;;;20.07;57.03
72262;BME280;60173;52.112;8.648;2022-07-23T10:10:02;100961.75;;;21.30;54.90
72262;BME280;60173;52.112;8.648;2022-07-23T10:12:29;100959.72;;;22.36;51.88
72262;BME280;60173;52.112;8.648;2022-07-23T10:14:56;100950.47;;;22.94;51.10
72262;BME280;60173;52.112;8.648;2022-07-23T10:17:23;100953.44;;;23.28;47.86
72262;BME280;60173;52.112;8.648;2022-07-23T10:19:50;100954.91;;;23.21;49.71
72262;BME280;60173;52.112;8.648;2022-07-23T10:22:22;100956.97;;;23.01;49.09
72262;BME280;60173;52.112;8.648;2022-07-23T10:24:56;100963.78;;;21.84;50.19
72262;BME280;60173;52.112;8.648;2022-07-23T10:30:28;100955.47;;;20.97;52.73
72262;BME280;60173;52.112;8.648;2022-07-23T10:35:33;100954.28;;;21.14;52.13
72262;BME280;60173;52.112;8.648;2022-07-23T10:38:21;100950.63;;;21.77;51.59
72262;BME280;60173;52.112;8.648;2022-07-23T10:40:55;100948.81;;;22.43;50.57
72262;BME280;60173;52.112;8.648;2022-07-23T10:43:23;100941.25;;;22.63;50.58
72262;BME280;60173;52.112;8.648;2022-07-23T10:45:50;100943.38;;;22.50;50.28
72262;BME280;60173;52.112;8.648;2022-07-23T10:48:18;100940.75;;;22.34;50.75
72262;BME280;60173;52.112;8.648;2022-07-23T10:51:05;100949.81;;;22.54;49.38
72262;BME280;60173;52.112;8.648;2022-07-23T10:53:56;100938.19;;;22.45;50.23
72262;BME280;60173;52.112;8.648;2022-07-23T10:59:17;100941.84;;;22.95;50.56
72262;BME280;60173;52.112;8.648;2022-07-23T11:01:43;100938.88;;;23.34;48.61
72262;BME280;60173;52.112;8.648;2022-07-23T11:04:10;100940.25;;;23.74;46.11
72262;BME280;60173;52.112;8.648;2022-07-23T11:09:40;100935.56;;;24.12;47.71
72262;BME280;60173;52.112;8.648;2022-07-23T11:14:59;100950.22;;;23.26;47.54
72262;BME280;60173;52.112;8.648;2022-07-23T11:17:27;100938.59;;;22.47;47.45
72262;BME280;60173;52.112;8.648;2022-07-23T11:22:39;100938.44;;;21.11;49.83
72262;BME280;60173;52.112;8.648;2022-07-23T11:25:34;100940.47;;;20.67;52.26
72262;BME280;60173;52.112;8.648;2022-07-23T11:28:16;100942.72;;;20.93;53.34
72262;BME280;60173;52.112;8.648;2022-07-23T11:30:45;100936.69;;;21.03;53.87
72262;BME280;60173;52.112;8.648;2022-07-23T11:35:40;100947.63;;;21.86;50.92
72262;BME280;60173;52.112;8.648;2022-07-23T11:38:21;100939.41;;;21.70;50.78
72262;BME280;60173;52.112;8.648;2022-07-23T11:40:53;100939.63;;;21.61;50.76
72262;BME280;60173;52.112;8.648;2022-07-23T11:43:21;100944.13;;;21.70;50.94
72262;BME280;60173;52.112;8.648;2022-07-23T11:45:50;100941.41;;;22.28;51.57
72262;BME280;60173;52.112;8.648;2022-07-23T11:48:25;100934.09;;;22.85;49.06
72262;BME280;60173;52.112;8.648;2022-07-23T11:50:53;100943.25;;;23.35;48.10
72262;BME280;60173;52.112;8.648;2022-07-23T11:53:29;100939.09;;;23.22;48.37
72262;BME280;60173;52.112;8.648;2022-07-23T11:56:06;100929.81;;;22.65;48.18
72262;BME280;60173;52.112;8.648;2022-07-23T11:58:33;100941.97;;;21.79;49.53
72262;BME280;60173;52.112;8.648;2022-07-23T12:01:00;100940.50;;;21.85;49.69
72262;BME280;60173;52.112;8.648;2022-07-23T12:03:27;100930.03;;;21.75;49.04
72262;BME280;60173;52.112;8.648;2022-07-23T12:05:57;100937.66;;;22.01;51.13
72262;BME280;60173;52.112;8.648;2022-07-23T12:08:24;100932.41;;;22.15;49.47
72262;BME280;60173;52.112;8.648;2022-07-23T12:10:51;100937.03;;;22.07;49.23
72262;BME280;60173;52.112;8.648;2022-07-23T12:13:20;100933.53;;;21.91;51.23
72262;BME280;60173;52.112;8.648;2022-07-23T12:15:49;100937.34;;;22.22;49.35
72262;BME280;60173;52.112;8.648;2022-07-23T12:18:19;100932.75;;;22.52;46.50
72262;BME280;60173;52.112;8.648;2022-07-23T12:20:49;100944.09;;;22.67;48.82
72262;BME280;60173;52.112;8.648;2022-07-23T12:23:17;100933.22;;;23.27;47.32
72262;BME280;60173;52.112;8.648;2022-07-23T12:25:49;100935.25;;;23.04;47.28
72262;BME280;60173;52.112;8.648;2022-07-23T12:28:28;100928.56;;;22.00;48.93
72262;BME280;60173;52.112;8.648;2022-07-23T12:30:56;100929.13;;;21.35;49.66
72262;BME280;60173;52.112;8.648;2022-07-23T12:33:34;100928.50;;;21.77;50.13
72262;BME280;60173;52.112;8.648;2022-07-23T12:36:04;100936.50;;;22.41;48.61
72262;BME280;60173;52.112;8.648;2022-07-23T12:38:57;100940.13;;;22.68;48.94
72262;BME280;60173;52.112;8.648;2022-07-23T12:41:23;100931.03;;;22.90;47.30
72262;BME280;60173;52.112;8.648;2022-07-23T12:43:50;100930.75;;;22.72;47.81
72262;BME280;60173;52.112;8.648;2022-07-23T12:46:19;100919.53;;;22.88;47.98
72262;BME280;60173;52.112;8.648;2022-07-23T12:48:50;100917.94;;;22.87;47.27
72262;BME280;60173;52.112;8.648;2022-07-23T12:51:26;100926.25;;;23.37;47.51
72262;BME280;60173;52.112;8.648;2022-07-23T12:56:27;100931.41;;;22.04;48.80
72262;BME280;60173;52.112;8.648;2022-07-23T12:59:15;100939.03;;;22.49;48.32
72262;BME280;60173;52.112;8.648;2022-07-23T13:01:44;100938.03;;;23.04;46.28
72262;BME280;60173;52.112;8.648;2022-07-23T13:04:14;100941.84;;;22.95;46.43
72262;BME280;60173;52.112;8.648;2022-07-23T13:06:44;100940.00;;;23.30;45.44
72262;BME280;60173;52.112;8.648;2022-07-23T13:09:13;100938.44;;;23.59;47.44
72262;BME280;60173;52.112;8.648;2022-07-23T13:11:41;100939.03;;;24.02;46.01
72262;BME280;60173;52.112;8.648;2022-07-23T13:14:08;100935.16;;;23.23;44.50
72262;BME280;60173;52.112;8.648;2022-07-23T13:16:35;100942.56;;;22.69;47.32
72262;BME280;60173;52.112;8.648;2022-07-23T13:19:02;100913.13;;;22.38;46.82
72262;BME280;60173;52.112;8.648;2022-07-23T13:21:29;100937.75;;;22.43;47.92